createdAt,value
2018-08-10T00:00:48.977Z,0.30
2018-08-10T00:03:17.991Z,0.30
2018-08-10T00:05:47.021Z,0.30
2018-08-10T00:08:16.009Z,0.40
2018-08-10T00:10:45.006Z,0.30
2018-08-10T00:13:13.981Z,0.50
2018-08-10T00:15:42.963Z,0.30
2018-08-10T00:18:11.885Z,0.30
2018-08-10T00:20:40.849Z,0.30
2018-08-10T00:23:10.022Z,0.30
2018-08-10T00:25:39.033Z,0.30
2018-08-10T00:28:08.342Z,0.30
2018-08-10T00:30:37.433Z,0.30
2018-08-10T00:33:06.718Z,0.33
2018-08-10T00:35:35.791Z,0.40
2018-08-10T00:38:04.729Z,0.30
2018-08-10T00:40:34.022Z,0.40
2018-08-10T00:43:02.978Z,0.30
2018-08-10T00:45:31.966Z,0.30
2018-08-10T00:48:00.874Z,0.30
2018-08-10T00:50:29.895Z,0.37
2018-08-10T00:53:30.558Z,0.30
2018-08-10T00:55:59.583Z,0.30
2018-08-10T00:58:28.522Z,0.37
2018-08-10T01:00:57.614Z,0.50
2018-08-10T01:03:26.530Z,0.40
2018-08-10T01:05:55.565Z,0.40
2018-08-10T01:08:24.495Z,0.30
2018-08-10T01:10:53.603Z,0.30
2018-08-10T01:13:22.528Z,0.40
2018-08-10T01:15:51.562Z,0.37
2018-08-10T01:18:20.488Z,0.40
2018-08-10T01:20:49.491Z,0.30
2018-08-10T01:23:18.526Z,0.50
2018-08-10T01:25:47.508Z,0.30
2018-08-10T01:28:16.448Z,0.50
2018-08-10T01:30:45.410Z,0.40
2018-08-10T01:33:14.342Z,0.40
2018-08-10T01:35:43.400Z,0.60
2018-08-10T01:38:12.421Z,0.60
2018-08-10T01:40:41.466Z,0.60
2018-08-10T01:43:10.429Z,0.40
2018-08-10T01:45:39.441Z,0.47
2018-08-10T01:48:08.352Z,0.40
2018-08-10T01:50:37.453Z,0.50
2018-08-10T01:53:06.490Z,0.40
2018-08-10T01:55:35.485Z,0.43
2018-08-10T01:58:04.440Z,0.50
2018-08-10T02:00:33.447Z,0.60
2018-08-10T02:03:02.449Z,0.67
2018-08-10T02:05:31.514Z,0.60
2018-08-10T02:08:00.442Z,0.43
2018-08-10T02:10:29.480Z,0.60
2018-08-10T02:12:59.197Z,0.60
2018-08-10T02:15:34.449Z,0.40
2018-08-10T02:18:03.406Z,0.50
2018-08-10T02:20:32.423Z,0.50
2018-08-10T02:23:01.347Z,0.80
2018-08-10T02:25:30.586Z,0.63
2018-08-10T02:27:59.560Z,0.67
2018-08-10T02:30:34.971Z,0.70
2018-08-10T02:33:04.030Z,0.57
2018-08-10T02:35:33.045Z,0.60
2018-08-10T02:38:01.993Z,0.50
2018-08-10T02:40:31.059Z,0.70
2018-08-10T02:43:00.043Z,0.70
2018-08-10T02:45:29.021Z,0.60
2018-08-10T02:47:57.971Z,0.50
2018-08-10T02:50:26.935Z,0.67
2018-08-10T02:52:55.897Z,0.63
2018-08-10T02:55:24.901Z,0.73
2018-08-10T02:57:53.861Z,0.60
2018-08-10T03:00:22.860Z,0.60
2018-08-10T03:02:51.788Z,0.73
2018-08-10T03:05:20.841Z,0.50
2018-08-10T03:07:49.770Z,0.63
2018-08-10T03:10:19.104Z,0.80
2018-08-10T03:12:48.101Z,0.53
2018-08-10T03:15:17.563Z,1.30
2018-08-10T03:17:47.130Z,0.60
2018-08-10T03:20:16.150Z,0.80
2018-08-10T03:22:46.202Z,0.73
2018-08-10T03:25:15.638Z,0.60
2018-08-10T03:27:44.605Z,0.60
2018-08-10T03:30:14.026Z,0.50
2018-08-10T03:32:43.103Z,0.60
2018-08-10T03:35:12.098Z,0.70
2018-08-10T03:37:41.123Z,0.70
2018-08-10T03:40:13.494Z,0.70
2018-08-10T03:42:42.565Z,0.70
2018-08-10T03:45:11.526Z,1.03
2018-08-10T03:47:41.148Z,0.60
2018-08-10T03:50:12.250Z,0.90
2018-08-10T03:52:41.492Z,0.73
2018-08-10T03:55:11.053Z,1.00
2018-08-10T03:57:40.372Z,0.70
2018-08-10T04:00:11.605Z,0.80
2018-08-10T04:02:40.690Z,0.70
2018-08-10T04:05:10.860Z,0.70
2018-08-10T04:07:39.867Z,0.90
2018-08-10T04:10:09.732Z,0.70
2018-08-10T04:12:39.181Z,0.97
2018-08-10T04:15:11.474Z,0.63
2018-08-10T04:17:40.612Z,0.67
2018-08-10T04:20:09.901Z,0.67
2018-08-10T04:22:38.949Z,0.70
2018-08-10T04:25:07.935Z,0.70
2018-08-10T04:27:37.054Z,0.93
2018-08-10T04:30:07.279Z,0.73
2018-08-10T04:32:36.277Z,0.70
2018-08-10T04:35:05.273Z,0.70
2018-08-10T04:37:34.338Z,0.70
2018-08-10T04:40:03.379Z,0.70
2018-08-10T04:42:32.468Z,0.73
2018-08-10T04:45:01.457Z,0.70
2018-08-10T04:47:30.493Z,0.80
2018-08-10T04:49:59.533Z,0.97
2018-08-10T04:52:28.581Z,1.20
2018-08-10T04:54:57.676Z,1.00
2018-08-10T04:57:26.777Z,0.80
2018-08-10T04:59:55.774Z,0.90
2018-08-10T05:02:25.945Z,0.80
2018-08-10T05:04:55.483Z,0.70
2018-08-10T05:07:24.706Z,0.60
2018-08-10T05:09:54.200Z,0.70
2018-08-10T05:12:23.400Z,1.00
2018-08-10T05:14:52.534Z,0.93
2018-08-10T05:17:21.748Z,0.80
2018-08-10T05:19:50.933Z,0.70
2018-08-10T05:22:20.226Z,1.00
2018-08-10T05:24:49.414Z,0.90
2018-08-10T05:27:18.684Z,0.70
2018-08-10T05:29:47.766Z,0.70
2018-08-10T05:32:16.923Z,0.80
2018-08-10T05:34:46.094Z,0.80
2018-08-10T05:37:15.281Z,0.80
2018-08-10T05:39:44.477Z,0.80
2018-08-10T05:42:13.692Z,0.80
2018-08-10T05:44:42.870Z,0.70
2018-08-10T05:47:12.186Z,0.97
2018-08-10T05:49:41.521Z,0.83
2018-08-10T05:52:10.745Z,0.90
2018-08-10T05:54:40.244Z,0.73
2018-08-10T05:57:09.487Z,0.97
2018-08-10T05:59:38.666Z,0.80
2018-08-10T06:02:07.782Z,1.00
2018-08-10T06:04:36.952Z,0.70
2018-08-10T06:07:06.335Z,0.90
2018-08-10T06:09:35.484Z,0.90
2018-08-10T06:12:04.613Z,0.87
2018-08-10T06:14:33.749Z,0.70
2018-08-10T06:17:02.946Z,0.80
2018-08-10T06:19:32.127Z,0.63
2018-08-10T06:22:01.230Z,0.90
2018-08-10T06:24:30.471Z,1.00
2018-08-10T06:26:59.665Z,0.80
2018-08-10T06:29:28.732Z,0.90
2018-08-10T06:31:57.887Z,1.00
2018-08-10T06:34:26.994Z,0.70
2018-08-10T06:36:56.220Z,0.90
2018-08-10T06:39:25.284Z,0.67
2018-08-10T06:41:54.389Z,0.83
2018-08-10T06:44:23.435Z,0.70
2018-08-10T06:46:52.559Z,0.77
2018-08-10T06:49:21.868Z,0.80
2018-08-10T06:51:51.063Z,0.70
2018-08-10T06:54:20.293Z,1.00
2018-08-10T06:56:49.485Z,1.10
2018-08-10T06:59:18.785Z,0.70
2018-08-10T07:01:47.882Z,0.70
2018-08-10T07:04:17.009Z,0.70
2018-08-10T07:06:46.298Z,0.70
2018-08-10T07:09:15.538Z,0.70
2018-08-10T07:11:44.741Z,0.90
2018-08-10T07:14:13.942Z,0.87
2018-08-10T07:16:43.270Z,1.00
2018-08-10T07:19:12.441Z,0.90
2018-08-10T07:21:41.688Z,1.10
2018-08-10T07:24:11.001Z,1.10
2018-08-10T07:26:40.493Z,0.73
2018-08-10T07:29:10.018Z,0.70
2018-08-10T07:31:39.528Z,0.73
2018-08-10T07:34:08.955Z,0.87
2018-08-10T07:36:38.553Z,0.97
2018-08-10T07:39:10.888Z,1.23
2018-08-10T07:41:40.298Z,0.90
2018-08-10T07:44:09.885Z,0.80
2018-08-10T07:46:39.530Z,0.93
2018-08-10T07:49:09.195Z,0.60
2018-08-10T07:51:38.727Z,0.73
2018-08-10T07:54:08.376Z,2.60
2018-08-10T07:56:37.930Z,0.90
2018-08-10T07:59:07.699Z,0.90
2018-08-10T08:01:37.167Z,0.80
2018-08-10T08:04:07.429Z,0.90
2018-08-10T08:06:37.019Z,0.77
2018-08-10T08:09:09.167Z,0.60
2018-08-10T08:11:38.380Z,0.80
2018-08-10T08:14:07.790Z,1.20
2018-08-10T08:19:30.255Z,0.87
2018-08-10T08:22:11.117Z,0.97
2018-08-10T08:24:41.315Z,1.10
2018-08-10T08:27:11.182Z,1.03
2018-08-10T08:29:40.598Z,0.90
2018-08-10T08:32:10.001Z,1.23
2018-08-10T08:34:39.326Z,1.80
2018-08-10T08:37:09.260Z,1.00
2018-08-10T08:40:52.180Z,1.30
2018-08-10T08:44:32.616Z,1.00
2018-08-10T08:47:04.674Z,0.50
2018-08-10T08:49:34.885Z,1.10
2018-08-10T08:52:04.192Z,0.80
2018-08-10T08:55:37.836Z,0.80
2018-08-10T08:58:07.929Z,0.90
2018-08-10T09:00:37.377Z,0.80
2018-08-10T09:03:06.780Z,1.00
2018-08-10T09:05:35.979Z,1.00
2018-08-10T09:08:05.248Z,0.60
2018-08-10T09:10:34.479Z,0.80
2018-08-10T09:13:03.787Z,1.20
2018-08-10T09:15:33.057Z,0.83
2018-08-10T09:18:02.230Z,0.73
2018-08-10T09:20:31.461Z,1.00
2018-08-10T09:23:00.689Z,0.87
2018-08-10T09:25:29.925Z,0.90
2018-08-10T09:27:59.157Z,0.80
2018-08-10T09:30:28.438Z,0.70
2018-08-10T09:32:57.593Z,0.70
2018-08-10T09:35:26.923Z,0.70
2018-08-10T09:37:56.217Z,0.70
2018-08-10T09:40:25.666Z,0.97
2018-08-10T09:42:54.913Z,0.93
2018-08-10T09:45:24.324Z,0.73
2018-08-10T09:47:53.527Z,0.87
2018-08-10T09:50:22.816Z,0.80
2018-08-10T09:52:59.507Z,1.00
2018-08-10T09:55:34.666Z,0.70
2018-08-10T09:58:07.374Z,0.60
2018-08-10T10:00:41.541Z,0.70
2018-08-10T10:03:16.880Z,0.70
2018-08-10T10:05:46.764Z,0.93
2018-08-10T10:08:16.463Z,0.67
2018-08-10T10:10:45.776Z,0.93
2018-08-10T10:13:15.004Z,0.80
2018-08-10T10:15:44.410Z,0.90
2018-08-10T10:18:15.026Z,0.90
2018-08-10T10:20:45.037Z,1.00
2018-08-10T10:23:14.234Z,0.80
2018-08-10T10:25:43.518Z,0.70
2018-08-10T10:28:12.706Z,0.90
2018-08-10T10:30:41.988Z,0.90
2018-08-10T10:33:11.252Z,0.90
2018-08-10T10:35:40.453Z,1.03
2018-08-10T10:38:09.642Z,0.83
2018-08-10T10:40:39.050Z,1.20
2018-08-10T10:43:08.171Z,1.07
2018-08-10T10:45:37.561Z,0.90
2018-08-10T10:48:07.427Z,0.80
2018-08-10T10:50:36.905Z,1.00
2018-08-10T10:53:06.159Z,0.97
2018-08-10T10:55:35.355Z,1.03
2018-08-10T10:58:04.581Z,1.20
2018-08-10T11:00:33.717Z,0.80
2018-08-10T11:03:03.021Z,1.13
2018-08-10T11:05:32.293Z,1.13
2018-08-10T11:08:01.510Z,1.27
2018-08-10T11:10:30.797Z,0.97
2018-08-10T11:12:59.969Z,1.10
2018-08-10T11:15:29.296Z,0.90
2018-08-10T11:17:58.544Z,0.80
2018-08-10T11:20:27.736Z,1.07
2018-08-10T11:22:56.958Z,0.90
2018-08-10T11:25:26.424Z,1.00
2018-08-10T11:27:55.573Z,1.03
2018-08-10T11:30:24.991Z,1.10
2018-08-10T11:32:54.307Z,1.03
2018-08-10T11:35:23.558Z,0.97
2018-08-10T11:37:52.661Z,0.90
2018-08-10T11:40:21.966Z,1.00
2018-08-10T11:42:51.246Z,0.73
2018-08-10T11:45:20.497Z,0.73
2018-08-10T11:47:49.679Z,0.57
2018-08-10T11:50:19.018Z,0.70
2018-08-10T11:52:48.418Z,0.77
2018-08-10T11:55:17.634Z,0.60
2018-08-10T11:57:47.081Z,0.70
2018-08-10T12:00:16.905Z,0.90
2018-08-10T12:02:46.145Z,0.70
2018-08-10T12:05:15.443Z,0.60
2018-08-10T12:07:44.723Z,0.70
2018-08-10T12:10:13.958Z,0.70
2018-08-10T12:12:43.314Z,0.60
2018-08-10T12:15:14.200Z,0.60
2018-08-10T12:17:43.448Z,0.70
2018-08-10T12:20:12.753Z,0.57
2018-08-10T12:22:42.772Z,0.80
2018-08-10T12:25:12.105Z,0.70
2018-08-10T12:27:42.270Z,0.80
2018-08-10T12:30:13.574Z,0.50
2018-08-10T12:32:43.251Z,1.07
2018-08-10T12:35:12.871Z,0.80
2018-08-10T12:37:42.024Z,0.80
2018-08-10T12:40:11.359Z,0.70
2018-08-10T12:42:40.895Z,0.60
2018-08-10T12:45:10.146Z,1.00
2018-08-10T12:47:39.697Z,0.70
2018-08-10T12:50:09.525Z,0.60
2018-08-10T12:52:38.896Z,0.50
2018-08-10T12:55:08.312Z,0.80
2018-08-10T12:57:37.643Z,0.80
2018-08-10T13:00:10.418Z,0.80
2018-08-10T13:02:39.873Z,0.63
2018-08-10T13:05:09.485Z,0.90
2018-08-10T13:07:38.634Z,0.60
2018-08-10T13:10:10.375Z,0.50
2018-08-10T13:12:39.705Z,0.57
2018-08-10T13:15:10.694Z,0.60
2018-08-10T13:17:40.043Z,0.60
2018-08-10T13:20:11.807Z,0.60
2018-08-10T13:22:41.185Z,0.40
2018-08-10T13:25:11.167Z,0.80
2018-08-10T13:27:40.468Z,0.93
2018-08-10T13:30:11.322Z,0.50
2018-08-10T13:32:40.596Z,0.60
2018-08-10T13:35:09.823Z,0.50
2018-08-10T13:37:39.017Z,0.50
2018-08-10T13:40:08.285Z,0.50
2018-08-10T13:42:37.619Z,0.50
2018-08-10T13:45:09.235Z,0.67
2018-08-10T13:47:38.500Z,0.50
2018-08-10T13:50:08.993Z,0.77
2018-08-10T13:52:38.342Z,0.60
2018-08-10T13:55:08.038Z,0.40
2018-08-10T13:57:37.247Z,0.60
2018-08-10T14:00:07.290Z,0.50
2018-08-10T14:02:42.026Z,0.50
2018-08-10T14:05:11.736Z,0.57
2018-08-10T14:07:41.208Z,0.73
2018-08-10T14:10:10.750Z,0.70
2018-08-10T14:12:39.988Z,0.50
2018-08-10T14:15:09.223Z,0.80
2018-08-10T14:17:38.555Z,0.63
2018-08-10T14:20:08.478Z,0.50
2018-08-10T14:22:37.730Z,0.40
2018-08-10T14:25:07.209Z,0.53
2018-08-10T14:27:36.608Z,0.50
2018-08-10T14:30:08.052Z,0.50
2018-08-10T14:32:37.297Z,0.50
2018-08-10T14:35:07.064Z,0.40
2018-08-10T14:37:37.605Z,0.40
2018-08-10T14:40:08.336Z,0.60
2018-08-10T14:42:37.973Z,0.67
2018-08-10T14:45:09.876Z,0.70
2018-08-10T14:47:39.264Z,0.60
2018-08-10T14:50:10.953Z,0.50
2018-08-10T14:52:40.421Z,0.40
2018-08-10T14:55:13.095Z,0.50
2018-08-10T14:57:42.427Z,0.50
2018-08-10T15:00:16.672Z,0.50
2018-08-10T15:03:03.910Z,0.50
2018-08-10T15:05:33.222Z,0.50
2018-08-10T15:08:02.421Z,0.40
2018-08-10T15:10:31.616Z,0.40
2018-08-10T15:13:01.405Z,0.50
2018-08-10T15:15:30.613Z,0.60
2018-08-10T15:18:01.070Z,0.50
2018-08-10T15:20:30.347Z,0.50
2018-08-10T15:22:59.605Z,0.50
2018-08-10T15:25:28.806Z,0.50
2018-08-10T15:27:58.006Z,0.50
2018-08-10T15:30:27.277Z,0.63
2018-08-10T15:32:56.568Z,0.47
2018-08-10T15:35:25.851Z,0.50
2018-08-10T15:37:55.625Z,0.50
2018-08-10T15:40:25.359Z,0.40
2018-08-10T15:42:54.605Z,0.40
2018-08-10T15:45:23.861Z,0.53
2018-08-10T15:47:53.236Z,0.50
2018-08-10T15:50:22.469Z,0.40
2018-08-10T15:52:51.771Z,0.40
2018-08-10T15:55:21.028Z,0.80
2018-08-10T15:57:50.444Z,0.73
2018-08-10T16:00:21.969Z,0.50
2018-08-10T16:02:51.270Z,0.50
2018-08-10T16:05:20.565Z,0.50
2018-08-10T16:07:49.905Z,0.50
2018-08-10T16:10:19.177Z,0.50
2018-08-10T16:12:48.654Z,0.60
2018-08-10T16:15:18.780Z,0.60
2018-08-10T16:17:48.205Z,0.60
2018-08-10T16:20:21.363Z,0.40
2018-08-10T16:22:50.950Z,0.60
2018-08-10T16:25:20.196Z,0.67
2018-08-10T16:27:49.640Z,0.40
2018-08-10T16:30:18.988Z,0.70
2018-08-10T16:32:48.370Z,0.50
2018-08-10T16:35:17.646Z,0.43
2018-08-10T16:37:47.855Z,0.50
2018-08-10T16:40:18.380Z,0.60
2018-08-10T16:42:47.700Z,0.60
2018-08-10T16:45:16.975Z,0.60
2018-08-10T16:47:46.295Z,0.53
2018-08-10T16:50:18.301Z,0.43
2018-08-10T16:52:47.763Z,0.40
2018-08-10T16:55:18.567Z,0.70
2018-08-10T16:57:48.543Z,0.43
2018-08-10T17:00:21.712Z,0.50
2018-08-10T17:02:51.068Z,0.63
2018-08-10T17:05:20.307Z,0.60
2018-08-10T17:07:49.547Z,1.00
2018-08-10T17:10:18.791Z,0.50
2018-08-10T17:12:48.078Z,0.60
2018-08-10T17:15:18.851Z,0.30
2018-08-10T17:17:48.855Z,0.63
2018-08-10T17:20:18.857Z,0.50
2018-08-10T17:22:48.241Z,0.60
2018-08-10T17:25:20.171Z,0.50
2018-08-10T17:27:49.494Z,0.47
2018-08-10T17:30:19.863Z,0.70
2018-08-10T17:32:49.149Z,0.80
2018-08-10T17:35:18.566Z,0.80
2018-08-10T17:37:48.136Z,0.67
2018-08-10T17:40:17.446Z,0.70
2018-08-10T17:42:46.863Z,0.50
2018-08-10T17:45:17.185Z,0.60
2018-08-10T17:47:46.519Z,0.83
2018-08-10T17:50:17.781Z,0.77
2018-08-10T17:52:50.404Z,0.90
2018-08-10T17:55:20.108Z,0.60
2018-08-10T17:57:49.831Z,0.73
2018-08-10T18:00:20.855Z,0.80
2018-08-10T18:02:50.763Z,0.73
2018-08-10T18:05:20.118Z,0.60
2018-08-10T18:07:49.396Z,0.60
2018-08-10T18:10:19.544Z,0.80
2018-08-10T18:12:48.812Z,0.60
2018-08-10T18:15:20.269Z,0.60
2018-08-10T18:17:49.898Z,0.40
2018-08-10T18:20:22.286Z,0.50
2018-08-10T18:22:52.614Z,0.40
2018-08-10T18:25:22.827Z,0.80
2018-08-10T18:27:52.058Z,0.50
2018-08-10T18:30:23.574Z,1.10
2018-08-10T18:32:53.057Z,1.10
2018-08-10T18:35:22.289Z,1.00
2018-08-10T18:37:51.963Z,0.90
2018-08-10T18:40:21.399Z,0.70
2018-08-10T18:42:51.060Z,0.77
2018-08-10T18:45:21.408Z,1.00
2018-08-10T18:47:50.684Z,0.90
2018-08-10T18:50:20.935Z,0.87
2018-08-10T18:52:50.151Z,0.63
2018-08-10T18:55:23.101Z,0.80
2018-08-10T18:57:52.932Z,0.60
2018-08-10T19:00:25.019Z,0.70
2018-08-10T19:02:56.044Z,0.73
2018-08-10T19:05:25.265Z,0.70
2018-08-10T19:07:54.755Z,0.60
2018-08-10T19:10:27.194Z,0.70
2018-08-10T19:12:56.381Z,0.70
2018-08-10T19:15:25.557Z,0.87
2018-08-10T19:17:55.112Z,0.60
2018-08-10T19:20:24.357Z,1.10
2018-08-10T19:22:55.784Z,1.03
2018-08-10T19:25:25.202Z,0.87
2018-08-10T19:27:54.937Z,0.80
2018-08-10T19:30:25.233Z,0.90
2018-08-10T19:32:54.531Z,0.83
2018-08-10T19:35:23.764Z,0.80
2018-08-10T19:37:52.890Z,0.70
2018-08-10T19:43:14.880Z,0.80
2018-08-10T19:45:44.063Z,1.07
2018-08-10T19:48:13.298Z,1.10
2018-08-10T19:50:42.572Z,0.80
2018-08-10T19:53:11.809Z,0.67
2018-08-10T19:55:41.049Z,1.47
2018-08-10T19:58:10.269Z,0.80
2018-08-10T20:00:39.539Z,0.70
2018-08-10T20:03:09.854Z,0.97
2018-08-10T20:05:39.129Z,0.70
2018-08-10T20:08:08.309Z,0.90
2018-08-10T20:19:16.349Z,0.73
2018-08-10T20:21:45.571Z,0.90
2018-08-10T20:24:14.779Z,1.20
2018-08-10T20:26:46.685Z,0.70
2018-08-10T20:29:16.341Z,0.70
2018-08-10T20:31:45.643Z,1.10
2018-08-10T20:34:14.862Z,1.00
2018-08-10T20:37:47.361Z,0.70
2018-08-10T20:40:18.090Z,0.60
2018-08-10T20:42:47.686Z,0.80
2018-08-10T20:45:19.609Z,0.60
2018-08-10T20:47:51.048Z,0.90
2018-08-10T20:50:21.220Z,1.30
2018-08-10T20:52:55.929Z,0.70
2018-08-10T20:55:25.384Z,0.80
2018-08-10T20:57:56.111Z,0.70
2018-08-10T21:00:25.518Z,1.10
2018-08-10T21:02:56.656Z,0.80
2018-08-10T21:05:26.122Z,0.87
2018-08-10T21:07:55.374Z,0.80
2018-08-10T21:10:26.854Z,0.90
2018-08-10T21:12:58.160Z,1.20
2018-08-10T21:15:27.449Z,0.80
2018-08-10T21:17:59.559Z,0.80
2018-08-10T21:20:29.000Z,0.70
2018-08-10T21:22:58.185Z,0.80
2018-08-10T21:25:31.765Z,0.70
2018-08-10T21:28:01.495Z,0.87
2018-08-10T21:30:30.741Z,1.10
2018-08-10T21:33:00.051Z,1.00
2018-08-10T21:35:29.374Z,1.03
2018-08-10T21:37:58.570Z,1.03
2018-08-10T21:40:31.336Z,0.90
2018-08-10T21:43:00.547Z,1.00
2018-08-10T21:45:29.818Z,1.27
2018-08-10T21:48:03.668Z,0.70
2018-08-10T21:50:33.770Z,0.83
2018-08-10T21:53:02.909Z,1.00
2018-08-10T21:55:32.139Z,0.80
2018-08-10T21:58:01.352Z,0.87
2018-08-10T22:00:40.645Z,0.73
2018-08-10T22:03:12.464Z,0.73
2018-08-10T22:05:41.991Z,0.73
2018-08-10T22:08:12.292Z,0.70
2018-08-10T22:10:45.167Z,0.80
2018-08-10T22:13:19.799Z,0.80
2018-08-10T22:15:54.007Z,0.90
2018-08-10T22:18:28.174Z,0.97
2018-08-10T22:20:57.916Z,1.17
2018-08-10T22:23:28.290Z,1.73
2018-08-10T22:26:01.641Z,1.40
2018-08-10T22:28:30.880Z,1.20
2018-08-10T22:31:00.156Z,1.10
2018-08-10T22:33:30.761Z,1.20
2018-08-10T22:36:01.403Z,1.00
2018-08-10T22:38:30.701Z,1.20
2018-08-10T22:41:01.848Z,1.30
2018-08-10T22:43:31.128Z,0.93
2018-08-10T22:46:02.692Z,0.93
2018-08-10T22:48:32.158Z,0.97
2018-08-10T22:51:02.618Z,0.90
2018-08-10T22:53:37.509Z,0.83
2018-08-10T22:56:09.066Z,0.70
2018-08-10T22:58:38.287Z,1.00
2018-08-10T23:01:07.507Z,1.40
2018-08-10T23:03:36.986Z,0.80
2018-08-10T23:06:06.228Z,1.10
2018-08-10T23:08:35.731Z,1.20
2018-08-10T23:11:04.861Z,1.03
2018-08-10T23:13:34.016Z,1.27
2018-08-10T23:16:03.297Z,1.10
2018-08-10T23:18:32.787Z,1.03
2018-08-10T23:21:01.977Z,1.30
2018-08-10T23:23:31.204Z,1.03
2018-08-10T23:26:00.505Z,1.00
2018-08-10T23:28:29.693Z,1.00
2018-08-10T23:30:58.897Z,0.93
2018-08-10T23:33:28.100Z,1.00
2018-08-10T23:35:57.336Z,0.93
2018-08-10T23:38:26.498Z,0.90
2018-08-10T23:40:55.733Z,1.20
2018-08-10T23:43:24.921Z,1.23
2018-08-10T23:45:54.197Z,1.00
2018-08-10T23:48:23.408Z,1.00
2018-08-10T23:50:55.668Z,1.10
2018-08-10T23:53:24.941Z,1.17
2018-08-10T23:55:54.312Z,1.00
2018-08-10T23:58:23.628Z,1.13
